sensor_id;sensor_type;location;lat;lon;timestamp;temperature;humidity
49579;DHT22;35483;50.828;3.228;2023-07-16T00:02:00;19.20;69.50
49579;DHT22;35483;50.828;3.228;2023-07-16T00:04:25;19.20;69.40
49579;DHT22;35483;50.828;3.228;2023-07-16T00:06:51;19.20;69.50
49579;DHT22;35483;50.828;3.228;2023-07-16T00:09:17;19.10;69.60
49579;DHT22;35483;50.828;3.228;2023-07-16T00:11:43;19.10;69.50
49579;DHT22;35483;50.828;3.228;2023-07-16T00:14:11;19.10;69.70
49579;DHT22;35483;50.828;3.228;2023-07-16T00:16:39;19.10;70.10
49579;DHT22;35483;50.828;3.228;2023-07-16T00:19:05;19.10;69.80
49579;DHT22;35483;50.828;3.228;2023-07-16T00:21:31;19.00;69.70
49579;DHT22;35483;50.828;3.228;2023-07-16T00:23:57;19.00;69.80
49579;DHT22;35483;50.828;3.228;2023-07-16T00:26:22;19.00;69.50
49579;DHT22;35483;50.828;3.228;2023-07-16T00:28:48;19.00;70.10
49579;DHT22;35483;50.828;3.228;2023-07-16T00:31:14;19.00;69.30
49579;DHT22;35483;50.828;3.228;2023-07-16T00:33:39;19.00;69.20
49579;DHT22;35483;50.828;3.228;2023-07-16T00:36:07;19.00;69.10
49579;DHT22;35483;50.828;3.228;2023-07-16T00:38:33;19.00;69.20
49579;DHT22;35483;50.828;3.228;2023-07-16T00:40:58;19.00;69.10
49579;DHT22;35483;50.828;3.228;2023-07-16T00:43:24;19.00;69.00
49579;DHT22;35483;50.828;3.228;2023-07-16T00:45:50;19.00;68.80
49579;DHT22;35483;50.828;3.228;2023-07-16T00:48:16;19.00;68.70
49579;DHT22;35483;50.828;3.228;2023-07-16T00:50:42;19.00;68.70
49579;DHT22;35483;50.828;3.228;2023-07-16T00:53:09;19.00;68.60
49579;DHT22;35483;50.828;3.228;2023-07-16T00:55:36;19.10;68.50
49579;DHT22;35483;50.828;3.228;2023-07-16T00:58:04;19.10;68.40
49579;DHT22;35483;50.828;3.228;2023-07-16T01:00:33;19.10;68.40
49579;DHT22;35483;50.828;3.228;2023-07-16T01:03:01;19.10;68.30
49579;DHT22;35483;50.828;3.228;2023-07-16T01:05:34;19.10;68.20
49579;DHT22;35483;50.828;3.228;2023-07-16T01:08:04;19.10;68.20
49579;DHT22;35483;50.828;3.228;2023-07-16T01:10:31;19.00;68.90
49579;DHT22;35483;50.828;3.228;2023-07-16T01:12:57;19.00;68.30
49579;DHT22;35483;50.828;3.228;2023-07-16T01:15:24;19.00;68.30
49579;DHT22;35483;50.828;3.228;2023-07-16T01:17:50;19.00;68.30
49579;DHT22;35483;50.828;3.228;2023-07-16T01:20:15;19.00;68.20
49579;DHT22;35483;50.828;3.228;2023-07-16T01:28:08;19.20;68.10
49579;DHT22;35483;50.828;3.228;2023-07-16T01:30:38;19.20;68.10
49579;DHT22;35483;50.828;3.228;2023-07-16T01:33:05;19.20;68.00
49579;DHT22;35483;50.828;3.228;2023-07-16T01:35:33;19.20;68.10
49579;DHT22;35483;50.828;3.228;2023-07-16T01:38:00;19.10;68.00
49579;DHT22;35483;50.828;3.228;2023-07-16T01:40:26;19.20;68.00
49579;DHT22;35483;50.828;3.228;2023-07-16T01:42:52;19.10;67.90
49579;DHT22;35483;50.828;3.228;2023-07-16T01:45:17;19.10;68.00
49579;DHT22;35483;50.828;3.228;2023-07-16T01:50:27;18.90;68.00
49579;DHT22;35483;50.828;3.228;2023-07-16T01:52:53;18.90;68.00
49579;DHT22;35483;50.828;3.228;2023-07-16T01:55:19;19.00;68.00
49579;DHT22;35483;50.828;3.228;2023-07-16T01:57:44;19.10;67.90
49579;DHT22;35483;50.828;3.228;2023-07-16T02:00:11;19.10;67.80
49579;DHT22;35483;50.828;3.228;2023-07-16T02:02:36;19.10;67.80
49579;DHT22;35483;50.828;3.228;2023-07-16T02:05:03;19.10;67.70
49579;DHT22;35483;50.828;3.228;2023-07-16T02:07:29;19.10;67.70
49579;DHT22;35483;50.828;3.228;2023-07-16T02:09:55;19.10;67.80
49579;DHT22;35483;50.828;3.228;2023-07-16T02:12:21;19.00;67.70
49579;DHT22;35483;50.828;3.228;2023-07-16T02:14:47;19.10;67.80
49579;DHT22;35483;50.828;3.228;2023-07-16T02:17:13;19.00;67.70
49579;DHT22;35483;50.828;3.228;2023-07-16T02:19:39;19.00;67.80
49579;DHT22;35483;50.828;3.228;2023-07-16T02:22:05;18.90;67.90
49579;DHT22;35483;50.828;3.228;2023-07-16T02:24:31;18.90;68.00
49579;DHT22;35483;50.828;3.228;2023-07-16T02:26:57;18.80;67.90
49579;DHT22;35483;50.828;3.228;2023-07-16T02:29:22;18.70;68.00
49579;DHT22;35483;50.828;3.228;2023-07-16T02:31:48;18.70;68.00
49579;DHT22;35483;50.828;3.228;2023-07-16T02:34:14;18.70;68.00
49579;DHT22;35483;50.828;3.228;2023-07-16T02:36:40;18.70;68.10
49579;DHT22;35483;50.828;3.228;2023-07-16T02:39:05;18.70;68.10
49579;DHT22;35483;50.828;3.228;2023-07-16T02:41:31;18.70;68.10
49579;DHT22;35483;50.828;3.228;2023-07-16T02:44:03;18.80;68.00
49579;DHT22;35483;50.828;3.228;2023-07-16T02:46:29;18.90;68.00
49579;DHT22;35483;50.828;3.228;2023-07-16T02:48:54;19.00;67.90
49579;DHT22;35483;50.828;3.228;2023-07-16T02:51:20;19.00;67.80
49579;DHT22;35483;50.828;3.228;2023-07-16T02:53:46;19.10;68.40
49579;DHT22;35483;50.828;3.228;2023-07-16T02:56:12;19.10;67.80
49579;DHT22;35483;50.828;3.228;2023-07-16T02:58:37;19.10;67.80
49579;DHT22;35483;50.828;3.228;2023-07-16T03:01:03;19.10;67.70
49579;DHT22;35483;50.828;3.228;2023-07-16T03:03:29;19.10;67.80
49579;DHT22;35483;50.828;3.228;2023-07-16T03:05:55;19.10;67.70
49579;DHT22;35483;50.828;3.228;2023-07-16T03:08:20;19.10;67.70
49579;DHT22;35483;50.828;3.228;2023-07-16T03:10:46;19.10;67.70
49579;DHT22;35483;50.828;3.228;2023-07-16T03:13:12;19.10;67.80
49579;DHT22;35483;50.828;3.228;2023-07-16T03:15:37;19.10;67.70
49579;DHT22;35483;50.828;3.228;2023-07-16T03:18:03;19.00;67.80
49579;DHT22;35483;50.828;3.228;2023-07-16T03:20:29;19.00;68.00
49579;DHT22;35483;50.828;3.228;2023-07-16T03:22:54;19.10;67.90
49579;DHT22;35483;50.828;3.228;2023-07-16T03:25:20;19.10;68.00
49579;DHT22;35483;50.828;3.228;2023-07-16T03:27:46;19.10;67.80
49579;DHT22;35483;50.828;3.228;2023-07-16T03:30:12;19.10;67.90
49579;DHT22;35483;50.828;3.228;2023-07-16T03:32:37;19.10;67.80
49579;DHT22;35483;50.828;3.228;2023-07-16T03:35:03;19.10;67.80
49579;DHT22;35483;50.828;3.228;2023-07-16T03:37:30;19.10;67.80
49579;DHT22;35483;50.828;3.228;2023-07-16T03:39:55;19.10;67.90
49579;DHT22;35483;50.828;3.228;2023-07-16T03:42:21;19.10;67.90
49579;DHT22;35483;50.828;3.228;2023-07-16T03:44:47;19.10;67.90
49579;DHT22;35483;50.828;3.228;2023-07-16T03:47:13;19.10;68.00
49579;DHT22;35483;50.828;3.228;2023-07-16T03:49:39;19.10;68.00
49579;DHT22;35483;50.828;3.228;2023-07-16T03:52:05;19.10;67.90
49579;DHT22;35483;50.828;3.228;2023-07-16T03:54:31;19.10;68.20
49579;DHT22;35483;50.828;3.228;2023-07-16T03:56:57;19.10;68.10
49579;DHT22;35483;50.828;3.228;2023-07-16T03:59:23;19.10;68.00
49579;DHT22;35483;50.828;3.228;2023-07-16T04:01:48;19.10;68.10
49579;DHT22;35483;50.828;3.228;2023-07-16T04:04:14;19.10;68.20
49579;DHT22;35483;50.828;3.228;2023-07-16T04:06:40;19.10;68.10
49579;DHT22;35483;50.828;3.228;2023-07-16T04:09:06;19.10;68.00
49579;DHT22;35483;50.828;3.228;2023-07-16T04:11:32;19.10;68.00
49579;DHT22;35483;50.828;3.228;2023-07-16T04:13:58;19.00;68.00
49579;DHT22;35483;50.828;3.228;2023-07-16T04:16:24;18.90;68.10
49579;DHT22;35483;50.828;3.228;2023-07-16T04:18:49;18.90;68.10
49579;DHT22;35483;50.828;3.228;2023-07-16T04:21:15;18.80;68.30
49579;DHT22;35483;50.828;3.228;2023-07-16T04:23:40;18.70;68.20
49579;DHT22;35483;50.828;3.228;2023-07-16T04:26:06;18.70;68.30
49579;DHT22;35483;50.828;3.228;2023-07-16T04:28:32;18.70;68.40
49579;DHT22;35483;50.828;3.228;2023-07-16T04:30:58;18.70;68.30
49579;DHT22;35483;50.828;3.228;2023-07-16T04:33:23;18.80;68.30
49579;DHT22;35483;50.828;3.228;2023-07-16T04:35:49;18.90;68.20
49579;DHT22;35483;50.828;3.228;2023-07-16T04:38:16;18.90;68.40
49579;DHT22;35483;50.828;3.228;2023-07-16T04:40:42;19.00;68.40
49579;DHT22;35483;50.828;3.228;2023-07-16T04:43:09;19.00;68.20
49579;DHT22;35483;50.828;3.228;2023-07-16T04:45:35;19.10;68.20
49579;DHT22;35483;50.828;3.228;2023-07-16T04:48:02;19.10;68.20
49579;DHT22;35483;50.828;3.228;2023-07-16T04:50:28;19.20;68.20
49579;DHT22;35483;50.828;3.228;2023-07-16T04:52:54;19.20;68.20
49579;DHT22;35483;50.828;3.228;2023-07-16T04:55:20;19.20;68.10
49579;DHT22;35483;50.828;3.228;2023-07-16T04:57:45;19.30;68.10
49579;DHT22;35483;50.828;3.228;2023-07-16T05:00:11;19.30;68.00
49579;DHT22;35483;50.828;3.228;2023-07-16T05:02:37;19.30;68.10
49579;DHT22;35483;50.828;3.228;2023-07-16T05:05:03;19.40;68.10
49579;DHT22;35483;50.828;3.228;2023-07-16T05:07:30;19.30;68.10
49579;DHT22;35483;50.828;3.228;2023-07-16T05:09:55;19.30;68.20
49579;DHT22;35483;50.828;3.228;2023-07-16T05:12:21;19.20;68.10
49579;DHT22;35483;50.828;3.228;2023-07-16T05:14:48;19.20;68.20
49579;DHT22;35483;50.828;3.228;2023-07-16T05:17:14;19.20;68.50
49579;DHT22;35483;50.828;3.228;2023-07-16T05:19:40;19.10;68.30
49579;DHT22;35483;50.828;3.228;2023-07-16T05:22:06;19.10;68.20
49579;DHT22;35483;50.828;3.228;2023-07-16T05:24:32;19.10;68.30
49579;DHT22;35483;50.828;3.228;2023-07-16T05:26:58;19.10;68.40
49579;DHT22;35483;50.828;3.228;2023-07-16T05:29:24;19.10;68.30
49579;DHT22;35483;50.828;3.228;2023-07-16T05:31:50;19.20;68.30
49579;DHT22;35483;50.828;3.228;2023-07-16T05:34:16;19.20;68.40
49579;DHT22;35483;50.828;3.228;2023-07-16T05:36:42;19.30;68.50
49579;DHT22;35483;50.828;3.228;2023-07-16T05:39:10;19.40;68.30
49579;DHT22;35483;50.828;3.228;2023-07-16T05:41:39;19.40;68.20
49579;DHT22;35483;50.828;3.228;2023-07-16T05:44:05;19.40;68.20
49579;DHT22;35483;50.828;3.228;2023-07-16T05:46:31;19.50;68.20
49579;DHT22;35483;50.828;3.228;2023-07-16T05:48:56;19.60;68.10
49579;DHT22;35483;50.828;3.228;2023-07-16T05:51:22;19.70;68.00
49579;DHT22;35483;50.828;3.228;2023-07-16T05:53:48;19.70;68.00
49579;DHT22;35483;50.828;3.228;2023-07-16T05:56:13;19.70;68.10
49579;DHT22;35483;50.828;3.228;2023-07-16T05:58:41;19.70;68.30
49579;DHT22;35483;50.828;3.228;2023-07-16T06:01:06;19.80;68.90
49579;DHT22;35483;50.828;3.228;2023-07-16T06:03:32;20.00;68.00
49579;DHT22;35483;50.828;3.228;2023-07-16T06:05:58;20.10;67.90
49579;DHT22;35483;50.828;3.228;2023-07-16T06:08:23;20.40;67.80
49579;DHT22;35483;50.828;3.228;2023-07-16T06:10:50;20.50;67.50
49579;DHT22;35483;50.828;3.228;2023-07-16T06:13:16;20.70;67.40
49579;DHT22;35483;50.828;3.228;2023-07-16T06:15:43;20.70;67.50
49579;DHT22;35483;50.828;3.228;2023-07-16T06:18:09;20.70;67.50
49579;DHT22;35483;50.828;3.228;2023-07-16T06:20:35;20.70;67.70
49579;DHT22;35483;50.828;3.228;2023-07-16T06:23:01;20.50;67.90
49579;DHT22;35483;50.828;3.228;2023-07-16T06:25:27;20.50;68.20
49579;DHT22;35483;50.828;3.228;2023-07-16T06:27:52;20.50;68.10
49579;DHT22;35483;50.828;3.228;2023-07-16T06:30:18;20.40;68.90
49579;DHT22;35483;50.828;3.228;2023-07-16T06:32:44;20.50;68.40
49579;DHT22;35483;50.828;3.228;2023-07-16T06:35:10;20.60;68.40
49579;DHT22;35483;50.828;3.228;2023-07-16T06:37:35;20.70;68.00
49579;DHT22;35483;50.828;3.228;2023-07-16T06:40:01;20.90;67.90
49579;DHT22;35483;50.828;3.228;2023-07-16T06:42:28;21.00;67.70
49579;DHT22;35483;50.828;3.228;2023-07-16T06:44:54;21.10;67.40
49579;DHT22;35483;50.828;3.228;2023-07-16T06:47:20;21.30;67.30
49579;DHT22;35483;50.828;3.228;2023-07-16T06:49:45;21.40;67.30
49579;DHT22;35483;50.828;3.228;2023-07-16T06:52:22;21.40;67.40
49579;DHT22;35483;50.828;3.228;2023-07-16T06:54:48;21.40;67.50
49579;DHT22;35483;50.828;3.228;2023-07-16T06:57:14;21.40;67.50
49579;DHT22;35483;50.828;3.228;2023-07-16T06:59:40;21.40;67.50
49579;DHT22;35483;50.828;3.228;2023-07-16T07:02:05;21.50;67.60
49579;DHT22;35483;50.828;3.228;2023-07-16T07:04:31;21.40;67.50
49579;DHT22;35483;50.828;3.228;2023-07-16T07:06:57;21.50;67.60
49579;DHT22;35483;50.828;3.228;2023-07-16T07:09:23;21.60;67.50
49579;DHT22;35483;50.828;3.228;2023-07-16T07:11:48;21.70;67.50
49579;DHT22;35483;50.828;3.228;2023-07-16T07:14:14;21.80;67.40
49579;DHT22;35483;50.828;3.228;2023-07-16T07:16:40;21.80;67.40
49579;DHT22;35483;50.828;3.228;2023-07-16T07:19:06;21.90;67.20
49579;DHT22;35483;50.828;3.228;2023-07-16T07:21:32;22.00;67.30
49579;DHT22;35483;50.828;3.228;2023-07-16T07:23:57;22.10;67.30
49579;DHT22;35483;50.828;3.228;2023-07-16T07:26:23;22.20;67.30
49579;DHT22;35483;50.828;3.228;2023-07-16T07:28:49;22.30;67.40
49579;DHT22;35483;50.828;3.228;2023-07-16T07:31:14;22.30;67.30
49579;DHT22;35483;50.828;3.228;2023-07-16T07:33:40;22.30;67.40
49579;DHT22;35483;50.828;3.228;2023-07-16T07:36:06;22.30;67.50
49579;DHT22;35483;50.828;3.228;2023-07-16T07:38:31;22.20;67.50
49579;DHT22;35483;50.828;3.228;2023-07-16T07:40:57;22.20;67.60
49579;DHT22;35483;50.828;3.228;2023-07-16T07:43:23;22.00;67.70
49579;DHT22;35483;50.828;3.228;2023-07-16T07:45:49;21.90;67.90
49579;DHT22;35483;50.828;3.228;2023-07-16T07:48:14;21.80;67.90
49579;DHT22;35483;50.828;3.228;2023-07-16T07:50:40;21.70;68.00
49579;DHT22;35483;50.828;3.228;2023-07-16T07:53:06;21.70;68.10
49579;DHT22;35483;50.828;3.228;2023-07-16T07:55:34;21.80;68.00
49579;DHT22;35483;50.828;3.228;2023-07-16T07:58:00;21.80;67.90
49579;DHT22;35483;50.828;3.228;2023-07-16T08:00:26;21.90;68.00
49579;DHT22;35483;50.828;3.228;2023-07-16T08:02:52;21.90;67.90
49579;DHT22;35483;50.828;3.228;2023-07-16T08:05:17;22.00;67.90
49579;DHT22;35483;50.828;3.228;2023-07-16T08:07:43;22.10;67.90
49579;DHT22;35483;50.828;3.228;2023-07-16T08:10:10;22.10;68.00
49579;DHT22;35483;50.828;3.228;2023-07-16T08:12:35;22.00;68.00
49579;DHT22;35483;50.828;3.228;2023-07-16T08:15:01;22.00;68.10
49579;DHT22;35483;50.828;3.228;2023-07-16T08:17:27;22.00;68.00
49579;DHT22;35483;50.828;3.228;2023-07-16T08:19:53;21.90;68.20
49579;DHT22;35483;50.828;3.228;2023-07-16T08:22:19;21.80;68.20
49579;DHT22;35483;50.828;3.228;2023-07-16T08:24:44;21.70;68.40
49579;DHT22;35483;50.828;3.228;2023-07-16T08:27:10;21.70;68.40
49579;DHT22;35483;50.828;3.228;2023-07-16T08:29:36;21.60;68.50
49579;DHT22;35483;50.828;3.228;2023-07-16T08:32:02;21.60;68.50
49579;DHT22;35483;50.828;3.228;2023-07-16T08:34:28;21.60;68.50
49579;DHT22;35483;50.828;3.228;2023-07-16T08:36:54;21.50;68.60
49579;DHT22;35483;50.828;3.228;2023-07-16T08:39:20;21.40;68.70
49579;DHT22;35483;50.828;3.228;2023-07-16T08:41:46;21.40;68.80
49579;DHT22;35483;50.828;3.228;2023-07-16T08:44:12;21.40;68.90
49579;DHT22;35483;50.828;3.228;2023-07-16T08:46:39;21.30;69.40
49579;DHT22;35483;50.828;3.228;2023-07-16T08:49:07;21.10;70.70
49579;DHT22;35483;50.828;3.228;2023-07-16T08:51:34;20.90;70.20
49579;DHT22;35483;50.828;3.228;2023-07-16T08:54:01;20.70;70.30
49579;DHT22;35483;50.828;3.228;2023-07-16T08:56:27;20.60;70.20
49579;DHT22;35483;50.828;3.228;2023-07-16T08:58:55;20.60;70.00
49579;DHT22;35483;50.828;3.228;2023-07-16T09:01:23;20.50;70.20
49579;DHT22;35483;50.828;3.228;2023-07-16T09:03:49;20.50;70.20
49579;DHT22;35483;50.828;3.228;2023-07-16T09:06:16;20.50;69.90
49579;DHT22;35483;50.828;3.228;2023-07-16T09:08:42;20.60;69.70
49579;DHT22;35483;50.828;3.228;2023-07-16T09:11:11;20.80;69.30
49579;DHT22;35483;50.828;3.228;2023-07-16T09:13:44;21.10;69.00
49579;DHT22;35483;50.828;3.228;2023-07-16T09:16:09;21.20;68.90
49579;DHT22;35483;50.828;3.228;2023-07-16T09:18:35;21.10;68.50
49579;DHT22;35483;50.828;3.228;2023-07-16T09:21:01;21.10;68.40
49579;DHT22;35483;50.828;3.228;2023-07-16T09:23:33;21.10;68.60
49579;DHT22;35483;50.828;3.228;2023-07-16T09:25:58;21.20;68.30
49579;DHT22;35483;50.828;3.228;2023-07-16T09:28:25;21.40;68.10
49579;DHT22;35483;50.828;3.228;2023-07-16T09:30:52;21.60;68.00
49579;DHT22;35483;50.828;3.228;2023-07-16T09:33:20;21.70;67.80
49579;DHT22;35483;50.828;3.228;2023-07-16T09:35:48;21.80;67.80
49579;DHT22;35483;50.828;3.228;2023-07-16T09:38:14;21.80;68.10
49579;DHT22;35483;50.828;3.228;2023-07-16T09:40:41;21.90;68.30
49579;DHT22;35483;50.828;3.228;2023-07-16T09:43:11;21.90;68.20
49579;DHT22;35483;50.828;3.228;2023-07-16T09:45:37;21.90;68.90
49579;DHT22;35483;50.828;3.228;2023-07-16T09:48:03;21.90;68.30
49579;DHT22;35483;50.828;3.228;2023-07-16T09:50:31;21.90;68.40
49579;DHT22;35483;50.828;3.228;2023-07-16T09:52:57;21.80;68.60
49579;DHT22;35483;50.828;3.228;2023-07-16T09:55:24;21.80;68.50
49579;DHT22;35483;50.828;3.228;2023-07-16T09:57:52;21.80;68.60
49579;DHT22;35483;50.828;3.228;2023-07-16T10:00:19;21.80;68.80
49579;DHT22;35483;50.828;3.228;2023-07-16T10:02:47;21.80;68.70
49579;DHT22;35483;50.828;3.228;2023-07-16T10:05:16;21.80;68.80
49579;DHT22;35483;50.828;3.228;2023-07-16T10:07:43;21.60;69.00
49579;DHT22;35483;50.828;3.228;2023-07-16T10:10:12;21.40;69.10
49579;DHT22;35483;50.828;3.228;2023-07-16T10:12:38;21.30;69.40
49579;DHT22;35483;50.828;3.228;2023-07-16T10:15:05;21.30;69.50
49579;DHT22;35483;50.828;3.228;2023-07-16T10:17:32;21.30;69.50
49579;DHT22;35483;50.828;3.228;2023-07-16T10:22:43;21.50;69.50
49579;DHT22;35483;50.828;3.228;2023-07-16T10:25:24;21.80;69.40
49579;DHT22;35483;50.828;3.228;2023-07-16T10:27:51;21.90;69.80
49579;DHT22;35483;50.828;3.228;2023-07-16T10:30:17;22.10;69.00
49579;DHT22;35483;50.828;3.228;2023-07-16T10:32:43;22.20;69.00
49579;DHT22;35483;50.828;3.228;2023-07-16T10:35:13;22.30;69.00
49579;DHT22;35483;50.828;3.228;2023-07-16T10:37:39;22.40;68.90
49579;DHT22;35483;50.828;3.228;2023-07-16T10:40:11;22.60;68.80
49579;DHT22;35483;50.828;3.228;2023-07-16T10:42:37;22.70;68.60
49579;DHT22;35483;50.828;3.228;2023-07-16T10:45:04;22.80;68.70
49579;DHT22;35483;50.828;3.228;2023-07-16T10:47:32;22.70;68.80
49579;DHT22;35483;50.828;3.228;2023-07-16T10:49:58;22.80;68.90
49579;DHT22;35483;50.828;3.228;2023-07-16T10:52:24;23.00;68.80
49579;DHT22;35483;50.828;3.228;2023-07-16T10:54:50;23.20;68.60
49579;DHT22;35483;50.828;3.228;2023-07-16T10:57:23;23.50;68.30
49579;DHT22;35483;50.828;3.228;2023-07-16T10:59:51;23.70;68.00
49579;DHT22;35483;50.828;3.228;2023-07-16T11:02:17;23.80;67.80
49579;DHT22;35483;50.828;3.228;2023-07-16T11:04:45;23.80;67.80
49579;DHT22;35483;50.828;3.228;2023-07-16T11:07:12;24.00;67.10
49579;DHT22;35483;50.828;3.228;2023-07-16T11:09:47;24.00;66.10
49579;DHT22;35483;50.828;3.228;2023-07-16T11:12:15;24.10;67.20
49579;DHT22;35483;50.828;3.228;2023-07-16T11:14:47;24.30;67.20
49579;DHT22;35483;50.828;3.228;2023-07-16T11:17:14;24.40;66.40
49579;DHT22;35483;50.828;3.228;2023-07-16T11:19:41;24.50;66.90
49579;DHT22;35483;50.828;3.228;2023-07-16T11:22:09;24.40;67.00
49579;DHT22;35483;50.828;3.228;2023-07-16T11:24:42;24.40;67.20
49579;DHT22;35483;50.828;3.228;2023-07-16T11:27:18;24.20;67.20
49579;DHT22;35483;50.828;3.228;2023-07-16T11:29:52;24.20;67.20
49579;DHT22;35483;50.828;3.228;2023-07-16T11:34:58;24.00;66.30
49579;DHT22;35483;50.828;3.228;2023-07-16T11:37:26;23.90;67.50
49579;DHT22;35483;50.828;3.228;2023-07-16T11:39:59;23.80;67.70
49579;DHT22;35483;50.828;3.228;2023-07-16T11:42:30;23.80;67.50
49579;DHT22;35483;50.828;3.228;2023-07-16T11:44:56;23.70;67.40
49579;DHT22;35483;50.828;3.228;2023-07-16T11:47:22;23.70;67.70
49579;DHT22;35483;50.828;3.228;2023-07-16T11:49:51;23.70;67.70
49579;DHT22;35483;50.828;3.228;2023-07-16T11:52:24;23.70;67.50
49579;DHT22;35483;50.828;3.228;2023-07-16T11:54:52;23.70;67.00
49579;DHT22;35483;50.828;3.228;2023-07-16T11:57:18;23.70;67.30
49579;DHT22;35483;50.828;3.228;2023-07-16T11:59:44;23.70;67.20
49579;DHT22;35483;50.828;3.228;2023-07-16T12:02:10;23.80;67.40
49579;DHT22;35483;50.828;3.228;2023-07-16T12:04:35;23.80;67.30
49579;DHT22;35483;50.828;3.228;2023-07-16T12:07:01;23.90;67.30
49579;DHT22;35483;50.828;3.228;2023-07-16T12:09:27;24.00;67.20
49579;DHT22;35483;50.828;3.228;2023-07-16T12:11:53;24.10;67.10
49579;DHT22;35483;50.828;3.228;2023-07-16T12:14:18;24.30;67.00
49579;DHT22;35483;50.828;3.228;2023-07-16T12:16:44;24.60;66.70
49579;DHT22;35483;50.828;3.228;2023-07-16T12:19:10;24.80;66.30
49579;DHT22;35483;50.828;3.228;2023-07-16T12:21:36;25.00;66.40
49579;DHT22;35483;50.828;3.228;2023-07-16T12:24:02;25.10;66.40
49579;DHT22;35483;50.828;3.228;2023-07-16T12:26:28;25.10;66.40
49579;DHT22;35483;50.828;3.228;2023-07-16T12:28:53;25.00;66.40
49579;DHT22;35483;50.828;3.228;2023-07-16T12:31:19;25.00;67.10
49579;DHT22;35483;50.828;3.228;2023-07-16T12:33:48;25.10;66.70
49579;DHT22;35483;50.828;3.228;2023-07-16T12:36:15;25.10;66.40
49579;DHT22;35483;50.828;3.228;2023-07-16T12:38:41;25.10;66.40
49579;DHT22;35483;50.828;3.228;2023-07-16T12:41:07;25.00;66.50
49579;DHT22;35483;50.828;3.228;2023-07-16T12:43:33;25.00;66.60
49579;DHT22;35483;50.828;3.228;2023-07-16T12:46:04;24.80;66.50
49579;DHT22;35483;50.828;3.228;2023-07-16T12:48:32;24.70;66.40
49579;DHT22;35483;50.828;3.228;2023-07-16T12:50:58;24.80;65.90
49579;DHT22;35483;50.828;3.228;2023-07-16T12:53:25;24.90;66.50
49579;DHT22;35483;50.828;3.228;2023-07-16T12:55:52;24.90;66.40
49579;DHT22;35483;50.828;3.228;2023-07-16T12:58:18;24.80;66.30
49579;DHT22;35483;50.828;3.228;2023-07-16T13:00:44;24.70;66.50
49579;DHT22;35483;50.828;3.228;2023-07-16T13:03:10;24.60;66.60
49579;DHT22;35483;50.828;3.228;2023-07-16T13:05:40;24.60;66.50
49579;DHT22;35483;50.828;3.228;2023-07-16T13:08:06;24.60;66.30
49579;DHT22;35483;50.828;3.228;2023-07-16T13:10:32;24.70;66.50
49579;DHT22;35483;50.828;3.228;2023-07-16T13:12:58;24.80;66.40
49579;DHT22;35483;50.828;3.228;2023-07-16T13:15:24;24.80;66.30
49579;DHT22;35483;50.828;3.228;2023-07-16T13:17:50;24.90;66.30
49579;DHT22;35483;50.828;3.228;2023-07-16T13:20:16;24.90;66.40
49579;DHT22;35483;50.828;3.228;2023-07-16T13:22:42;24.90;66.50
49579;DHT22;35483;50.828;3.228;2023-07-16T13:25:08;25.00;66.70
49579;DHT22;35483;50.828;3.228;2023-07-16T13:27:34;25.00;66.40
49579;DHT22;35483;50.828;3.228;2023-07-16T13:29:59;25.10;66.50
49579;DHT22;35483;50.828;3.228;2023-07-16T13:32:25;25.10;66.40
49579;DHT22;35483;50.828;3.228;2023-07-16T13:34:51;25.10;66.40
49579;DHT22;35483;50.828;3.228;2023-07-16T13:37:16;25.10;66.40
49579;DHT22;35483;50.828;3.228;2023-07-16T13:39:42;25.10;66.40
49579;DHT22;35483;50.828;3.228;2023-07-16T13:42:08;25.10;66.30
49579;DHT22;35483;50.828;3.228;2023-07-16T13:44:33;25.10;66.40
49579;DHT22;35483;50.828;3.228;2023-07-16T13:46:59;25.20;66.30
49579;DHT22;35483;50.828;3.228;2023-07-16T13:49:25;25.20;66.30
49579;DHT22;35483;50.828;3.228;2023-07-16T13:51:51;25.20;66.20
49579;DHT22;35483;50.828;3.228;2023-07-16T13:54:16;25.10;66.10
49579;DHT22;35483;50.828;3.228;2023-07-16T13:56:42;25.10;66.10
49579;DHT22;35483;50.828;3.228;2023-07-16T13:59:08;25.10;66.00
49579;DHT22;35483;50.828;3.228;2023-07-16T14:01:38;25.10;66.00
49579;DHT22;35483;50.828;3.228;2023-07-16T14:04:04;25.20;65.80
49579;DHT22;35483;50.828;3.228;2023-07-16T14:06:30;25.20;65.90
49579;DHT22;35483;50.828;3.228;2023-07-16T14:08:56;25.10;65.00
49579;DHT22;35483;50.828;3.228;2023-07-16T14:11:22;25.00;65.70
49579;DHT22;35483;50.828;3.228;2023-07-16T14:13:48;24.80;63.70
49579;DHT22;35483;50.828;3.228;2023-07-16T14:16:17;24.60;66.20
49579;DHT22;35483;50.828;3.228;2023-07-16T14:18:43;24.40;66.30
49579;DHT22;35483;50.828;3.228;2023-07-16T14:21:09;24.40;66.40
49579;DHT22;35483;50.828;3.228;2023-07-16T14:23:36;24.40;66.40
49579;DHT22;35483;50.828;3.228;2023-07-16T14:26:02;24.40;66.30
49579;DHT22;35483;50.828;3.228;2023-07-16T14:28:28;24.40;66.20
49579;DHT22;35483;50.828;3.228;2023-07-16T14:30:54;24.50;66.10
49579;DHT22;35483;50.828;3.228;2023-07-16T14:33:21;24.50;66.10
49579;DHT22;35483;50.828;3.228;2023-07-16T14:35:46;24.50;65.90
49579;DHT22;35483;50.828;3.228;2023-07-16T14:38:12;24.60;65.90
49579;DHT22;35483;50.828;3.228;2023-07-16T14:40:38;24.60;65.60
49579;DHT22;35483;50.828;3.228;2023-07-16T14:43:07;24.60;65.60
49579;DHT22;35483;50.828;3.228;2023-07-16T14:45:33;24.70;65.30
49579;DHT22;35483;50.828;3.228;2023-07-16T14:48:00;24.60;65.50
49579;DHT22;35483;50.828;3.228;2023-07-16T14:50:26;24.60;65.70
49579;DHT22;35483;50.828;3.228;2023-07-16T14:52:53;24.50;65.90
49579;DHT22;35483;50.828;3.228;2023-07-16T14:55:19;24.40;65.70
49579;DHT22;35483;50.828;3.228;2023-07-16T14:57:44;24.40;66.00
49579;DHT22;35483;50.828;3.228;2023-07-16T15:00:11;24.30;66.00
49579;DHT22;35483;50.828;3.228;2023-07-16T15:02:37;24.30;66.00
49579;DHT22;35483;50.828;3.228;2023-07-16T15:05:04;24.20;65.90
49579;DHT22;35483;50.828;3.228;2023-07-16T15:07:32;24.10;66.00
49579;DHT22;35483;50.828;3.228;2023-07-16T15:10:01;24.00;66.20
49579;DHT22;35483;50.828;3.228;2023-07-16T15:12:27;24.00;66.20
49579;DHT22;35483;50.828;3.228;2023-07-16T15:14:53;24.10;66.20
49579;DHT22;35483;50.828;3.228;2023-07-16T15:17:18;24.20;66.20
49579;DHT22;35483;50.828;3.228;2023-07-16T15:19:44;24.40;66.00
49579;DHT22;35483;50.828;3.228;2023-07-16T15:22:10;24.60;65.90
49579;DHT22;35483;50.828;3.228;2023-07-16T15:24:36;24.70;65.80
49579;DHT22;35483;50.828;3.228;2023-07-16T15:27:02;24.70;65.70
49579;DHT22;35483;50.828;3.228;2023-07-16T15:29:29;24.80;65.70
49579;DHT22;35483;50.828;3.228;2023-07-16T15:31:55;24.80;65.60
49579;DHT22;35483;50.828;3.228;2023-07-16T15:34:20;24.70;65.80
49579;DHT22;35483;50.828;3.228;2023-07-16T15:36:46;24.70;65.70
49579;DHT22;35483;50.828;3.228;2023-07-16T15:39:12;24.70;65.60